createdAt,value
2022-08-25T00:00:17.097Z,2.70
2022-08-25T00:03:02.933Z,3.13
2022-08-25T00:05:50.131Z,2.90
2022-08-25T00:08:36.953Z,2.85
2022-08-25T00:11:23.981Z,3.00
2022-08-25T00:14:13.687Z,3.00
2022-08-25T00:16:59.530Z,2.90
2022-08-25T00:19:45.201Z,2.92
2022-08-25T00:22:30.480Z,2.90
2022-08-25T00:25:15.908Z,2.85
2022-08-25T00:28:04.152Z,2.83
2022-08-25T00:30:53.086Z,2.85
2022-08-25T00:33:38.646Z,3.22
2022-08-25T00:36:23.712Z,3.13
2022-08-25T00:39:10.970Z,2.63
2022-08-25T00:41:57.689Z,3.00
2022-08-25T00:44:43.072Z,3.17
2022-08-25T00:47:28.428Z,2.90
2022-08-25T00:50:15.583Z,3.50
2022-08-25T00:53:04.470Z,3.00
2022-08-25T00:55:50.869Z,3.10
2022-08-25T00:58:36.946Z,3.30
2022-08-25T01:01:22.346Z,3.20
2022-08-25T01:04:08.244Z,3.33
2022-08-25T01:06:54.094Z,3.13
2022-08-25T01:09:39.483Z,3.40
2022-08-25T01:12:26.843Z,3.42
2022-08-25T01:15:13.403Z,3.53
2022-08-25T01:17:59.779Z,3.08
2022-08-25T01:20:50.231Z,3.58
2022-08-25T01:23:35.232Z,3.20
2022-08-25T01:26:28.328Z,3.40
2022-08-25T01:29:15.529Z,3.13
2022-08-25T01:32:04.557Z,3.30
2022-08-25T01:34:49.696Z,3.42
2022-08-25T01:37:37.111Z,3.38
2022-08-25T01:40:22.580Z,3.53
2022-08-25T01:43:07.842Z,3.50
2022-08-25T01:45:53.133Z,3.40
2022-08-25T01:48:38.855Z,3.88
2022-08-25T01:51:25.663Z,4.00
2022-08-25T01:54:10.875Z,3.97
2022-08-25T01:56:55.856Z,4.05
2022-08-25T01:59:40.777Z,3.50
2022-08-25T02:02:26.375Z,3.65
2022-08-25T02:05:13.652Z,3.58
2022-08-25T02:07:58.796Z,3.60
2022-08-25T02:10:44.351Z,3.90
2022-08-25T02:13:31.154Z,4.10
2022-08-25T02:16:20.302Z,4.00
2022-08-25T02:19:08.563Z,3.83
2022-08-25T02:21:53.825Z,4.07
2022-08-25T02:24:39.021Z,4.10
2022-08-25T02:27:24.624Z,3.92
2022-08-25T02:30:10.569Z,3.80
2022-08-25T02:32:55.765Z,4.03
2022-08-25T02:35:41.237Z,3.90
2022-08-25T02:38:26.811Z,4.10
2022-08-25T02:41:17.841Z,4.15
2022-08-25T02:44:05.227Z,4.10
2022-08-25T02:46:50.530Z,4.05
2022-08-25T02:49:35.481Z,4.00
2022-08-25T02:52:20.924Z,4.43
2022-08-25T02:55:09.240Z,4.43
2022-08-25T02:57:54.437Z,4.00
2022-08-25T03:00:39.891Z,4.13
2022-08-25T03:03:25.340Z,4.10
2022-08-25T03:06:12.829Z,4.43
2022-08-25T03:08:58.455Z,4.65
2022-08-25T03:11:43.400Z,4.68
2022-08-25T03:14:28.667Z,4.55
2022-08-25T03:17:14.053Z,4.35
2022-08-25T03:19:59.048Z,4.32
2022-08-25T03:22:43.965Z,4.65
2022-08-25T03:25:29.408Z,4.00
2022-08-25T03:28:14.664Z,4.45
2022-08-25T03:31:02.827Z,4.32
2022-08-25T03:33:48.285Z,4.50
2022-08-25T03:36:33.216Z,4.70
2022-08-25T03:39:19.943Z,4.68
2022-08-25T03:42:05.136Z,4.47
2022-08-25T03:44:50.000Z,4.30
2022-08-25T03:47:35.081Z,4.53
2022-08-25T03:50:21.911Z,4.90
2022-08-25T03:53:07.049Z,4.80
2022-08-25T03:55:55.879Z,4.38
2022-08-25T03:58:41.123Z,4.40
2022-08-25T04:01:26.560Z,4.60
2022-08-25T04:04:13.393Z,4.65
2022-08-25T04:06:58.364Z,4.70
2022-08-25T04:09:43.933Z,4.90
2022-08-25T04:12:29.059Z,4.90
2022-08-25T04:15:14.730Z,5.10
2022-08-25T04:17:59.749Z,5.55
2022-08-25T04:20:46.751Z,4.93
2022-08-25T04:23:32.545Z,5.15
2022-08-25T04:26:24.353Z,5.45
2022-08-25T04:29:11.797Z,5.60
2022-08-25T04:31:57.251Z,5.75
2022-08-25T04:34:42.564Z,6.07
2022-08-25T04:37:27.449Z,6.03
2022-08-25T04:40:13.005Z,6.28
2022-08-25T04:42:58.998Z,5.30
2022-08-25T04:45:44.361Z,5.72
2022-08-25T04:48:29.583Z,6.15
2022-08-25T04:51:18.169Z,7.00
2022-08-25T04:54:06.289Z,6.05
2022-08-25T04:56:58.036Z,6.10
2022-08-25T04:59:43.848Z,6.10
2022-08-25T05:02:28.726Z,6.15
2022-08-25T05:05:14.298Z,5.85
2022-08-25T05:07:59.346Z,6.07
2022-08-25T05:10:44.688Z,6.57
2022-08-25T05:13:30.618Z,6.13
2022-08-25T05:16:17.205Z,5.95
2022-08-25T05:19:02.474Z,5.80
2022-08-25T05:21:47.696Z,5.65
2022-08-25T05:24:32.520Z,6.32
2022-08-25T05:27:17.846Z,5.80
2022-08-25T05:30:03.781Z,5.93
2022-08-25T05:32:49.168Z,6.00
2022-08-25T05:35:34.731Z,5.80
2022-08-25T05:38:19.957Z,7.15
2022-08-25T05:41:08.890Z,6.55
2022-08-25T05:43:54.432Z,6.38
2022-08-25T05:46:39.859Z,6.65
2022-08-25T05:49:24.913Z,5.93
2022-08-25T05:52:10.278Z,5.72
2022-08-25T05:54:55.625Z,6.00
2022-08-25T05:57:40.496Z,6.07
2022-08-25T06:00:25.589Z,5.85
2022-08-25T06:03:10.858Z,6.32
2022-08-25T06:06:05.736Z,5.75
2022-08-25T06:08:51.748Z,5.88
2022-08-25T06:11:38.660Z,5.68
2022-08-25T06:14:24.245Z,5.90
2022-08-25T06:17:09.785Z,8.57
2022-08-25T06:19:54.895Z,5.80
2022-08-25T06:22:40.136Z,5.28
2022-08-25T06:25:26.842Z,5.88
2022-08-25T06:28:11.907Z,5.70
2022-08-25T06:31:01.631Z,5.50
2022-08-25T06:33:46.783Z,5.22
2022-08-25T06:36:32.978Z,5.55
2022-08-25T06:39:18.505Z,5.28
2022-08-25T06:42:04.255Z,5.68
2022-08-25T06:44:49.308Z,5.30
2022-08-25T06:47:34.740Z,5.30
2022-08-25T06:50:20.272Z,5.40
2022-08-25T06:53:05.732Z,5.80
2022-08-25T06:55:58.352Z,5.15
2022-08-25T06:58:43.576Z,5.03
2022-08-25T07:01:28.661Z,5.30
2022-08-25T07:04:17.008Z,6.82
2022-08-25T07:07:03.508Z,6.00
2022-08-25T07:09:48.565Z,5.38
2022-08-25T07:12:33.522Z,5.45
2022-08-25T07:15:20.872Z,5.65
2022-08-25T07:18:07.258Z,5.47
2022-08-25T07:20:52.727Z,5.10
2022-08-25T07:23:38.093Z,5.18
2022-08-25T07:26:37.225Z,5.38
2022-08-25T07:29:31.728Z,5.38
2022-08-25T07:32:18.095Z,5.50
2022-08-25T07:35:03.818Z,5.40
2022-08-25T07:37:52.149Z,5.47
2022-08-25T07:40:42.998Z,4.90
2022-08-25T07:43:28.444Z,5.45
2022-08-25T07:46:13.696Z,5.88
2022-08-25T07:48:59.108Z,5.82
2022-08-25T07:52:04.205Z,5.15
2022-08-25T07:54:50.914Z,5.25
2022-08-25T07:57:35.894Z,5.45
2022-08-25T08:00:21.493Z,6.05
2022-08-25T08:03:15.935Z,5.95
2022-08-25T08:06:11.969Z,5.57
2022-08-25T08:08:57.975Z,5.65
2022-08-25T08:11:53.741Z,5.45
2022-08-25T08:14:39.573Z,5.95
2022-08-25T08:17:29.858Z,5.32
2022-08-25T08:20:14.789Z,5.35
2022-08-25T08:23:00.658Z,5.70
2022-08-25T08:25:47.008Z,5.45
2022-08-25T08:28:31.783Z,5.82
2022-08-25T08:31:19.814Z,5.75
2022-08-25T08:34:05.261Z,6.07
2022-08-25T08:36:50.069Z,5.68
2022-08-25T08:39:37.006Z,5.85
2022-08-25T08:42:57.534Z,5.85
2022-08-25T08:45:51.586Z,6.00
2022-08-25T08:48:55.614Z,5.57
2022-08-25T08:51:54.352Z,5.80
2022-08-25T08:54:42.944Z,6.88
2022-08-25T08:57:29.420Z,5.82
2022-08-25T09:00:15.468Z,6.90
2022-08-25T09:03:12.700Z,5.75
2022-08-25T09:06:03.313Z,5.18
2022-08-25T09:08:55.277Z,5.57
2022-08-25T09:12:08.536Z,5.70
2022-08-25T09:14:54.301Z,5.70
2022-08-25T09:18:04.700Z,6.10
2022-08-25T09:20:55.611Z,5.80
2022-08-25T09:24:02.859Z,5.40
2022-08-25T09:26:48.648Z,5.13
2022-08-25T09:29:45.842Z,5.28
2022-08-25T09:32:35.365Z,5.47
2022-08-25T09:35:28.072Z,6.22
2022-08-25T09:38:13.883Z,6.25
2022-08-25T09:41:00.924Z,6.40
2022-08-25T09:43:53.572Z,6.25
2022-08-25T09:46:38.821Z,6.45
2022-08-25T09:49:32.076Z,6.45
2022-08-25T09:52:29.752Z,6.50
2022-08-25T09:55:22.559Z,6.60
2022-08-25T09:58:18.487Z,6.43
2022-08-25T10:01:12.155Z,6.10
2022-08-25T10:03:57.232Z,5.85
2022-08-25T10:06:47.022Z,6.40
2022-08-25T10:09:41.912Z,6.78
2022-08-25T10:12:42.587Z,6.25
2022-08-25T10:15:34.685Z,6.15
2022-08-25T10:18:27.025Z,6.40
2022-08-25T10:21:17.302Z,6.80
2022-08-25T10:24:02.880Z,6.20
2022-08-25T10:27:07.414Z,6.15
2022-08-25T10:30:34.428Z,6.70
2022-08-25T10:33:54.852Z,6.53
2022-08-25T10:37:02.327Z,5.82
2022-08-25T10:40:13.332Z,6.55
2022-08-25T10:43:19.196Z,6.78
2022-08-25T10:46:43.211Z,7.05
2022-08-25T10:49:45.820Z,6.10
2022-08-25T10:52:54.081Z,7.40
2022-08-25T10:56:10.317Z,6.63
2022-08-25T10:59:12.394Z,6.60
2022-08-25T11:02:19.910Z,6.63
2022-08-25T11:05:07.364Z,6.60
2022-08-25T11:08:19.186Z,6.32
2022-08-25T11:11:23.177Z,6.35
2022-08-25T11:14:19.125Z,6.75
2022-08-25T11:17:16.880Z,7.22
2022-08-25T11:20:15.409Z,6.22
2022-08-25T11:23:17.142Z,6.75
2022-08-25T11:26:09.855Z,6.35
2022-08-25T11:29:05.989Z,7.18
2022-08-25T11:31:59.459Z,6.10
2022-08-25T11:34:46.354Z,6.15
2022-08-25T11:37:32.795Z,6.20
2022-08-25T11:40:31.000Z,6.63
2022-08-25T11:43:28.893Z,6.25
2022-08-25T11:47:25.303Z,5.40
2022-08-25T11:50:30.166Z,6.13
2022-08-25T11:53:28.158Z,6.35
2022-08-25T11:56:37.368Z,5.68
2022-08-25T11:59:50.242Z,5.25
2022-08-25T12:02:42.593Z,5.80
2022-08-25T12:05:30.754Z,5.20
2022-08-25T12:08:57.757Z,5.43
2022-08-25T12:11:50.820Z,5.53
2022-08-25T12:14:42.142Z,10.18
2022-08-25T12:17:41.123Z,6.03
2022-08-25T12:20:55.120Z,5.13
2022-08-25T12:23:46.420Z,5.07
2022-08-25T12:26:48.530Z,5.13
2022-08-25T12:29:46.443Z,4.65
2022-08-25T12:32:41.012Z,5.15
2022-08-25T12:35:45.097Z,5.45
2022-08-25T12:38:31.983Z,5.40
2022-08-25T12:41:27.305Z,5.15
2022-08-25T12:44:34.812Z,5.00
2022-08-25T12:47:19.527Z,5.35
2022-08-25T12:50:27.821Z,4.70
2022-08-25T12:53:17.527Z,5.10
2022-08-25T12:56:06.062Z,5.00
2022-08-25T12:59:19.353Z,5.50
2022-08-25T13:02:35.971Z,5.60
2022-08-25T13:05:36.440Z,5.65
2022-08-25T13:08:24.937Z,5.10
2022-08-25T13:11:37.809Z,4.70
2022-08-25T13:14:33.360Z,4.70
2022-08-25T13:17:35.584Z,4.35
2022-08-25T13:20:26.751Z,4.57
2022-08-25T13:23:12.349Z,4.45
2022-08-25T13:25:58.523Z,4.85
2022-08-25T13:28:50.629Z,4.43
2022-08-25T13:31:38.181Z,4.95
2022-08-25T13:34:43.765Z,5.07
2022-08-25T13:37:30.265Z,5.35
2022-08-25T13:40:19.738Z,5.05
2022-08-25T13:43:09.017Z,5.50
2022-08-25T13:45:54.283Z,5.45
2022-08-25T13:48:49.881Z,5.43
2022-08-25T13:51:36.182Z,4.93
2022-08-25T13:54:31.064Z,5.22
2022-08-25T13:57:25.372Z,5.28
2022-08-25T14:00:11.601Z,5.60
2022-08-25T14:02:56.957Z,5.80
2022-08-25T14:05:43.908Z,6.40
2022-08-25T14:08:36.528Z,5.60
2022-08-25T14:11:34.533Z,5.50
2022-08-25T14:14:22.633Z,5.80
2022-08-25T14:17:22.358Z,5.95
2022-08-25T14:20:27.808Z,5.88
2022-08-25T14:23:18.861Z,5.65
2022-08-25T14:26:04.680Z,5.47
2022-08-25T14:28:52.227Z,5.90
2022-08-25T14:31:39.851Z,5.50
2022-08-25T14:34:29.273Z,5.60
2022-08-25T14:37:17.988Z,5.63
2022-08-25T14:40:04.254Z,5.28
2022-08-25T14:42:49.939Z,7.25
2022-08-25T14:45:38.365Z,9.45
2022-08-25T14:48:25.984Z,6.00
2022-08-25T14:51:13.306Z,5.65
2022-08-25T14:54:02.496Z,5.85
2022-08-25T14:56:47.676Z,5.90
2022-08-25T14:59:33.074Z,5.50
2022-08-25T15:02:22.890Z,5.22
2022-08-25T15:05:19.730Z,5.88
2022-08-25T15:08:04.756Z,6.05
2022-08-25T15:10:51.502Z,6.22
2022-08-25T15:13:36.483Z,5.72
2022-08-25T15:16:34.031Z,5.30
2022-08-25T15:19:24.251Z,5.28
2022-08-25T15:22:10.105Z,5.10
2022-08-25T15:24:55.913Z,6.03
2022-08-25T15:27:41.098Z,5.55
2022-08-25T15:30:31.022Z,5.88
2022-08-25T15:33:16.657Z,5.68
2022-08-25T15:36:02.761Z,5.18
2022-08-25T15:38:48.447Z,5.32
2022-08-25T15:41:33.693Z,5.70
2022-08-25T15:44:18.970Z,5.47
2022-08-25T15:47:04.305Z,5.68
2022-08-25T15:49:50.150Z,5.00
2022-08-25T15:52:46.381Z,5.47
2022-08-25T15:55:33.752Z,5.13
2022-08-25T15:58:19.200Z,5.57
2022-08-25T16:01:04.373Z,5.93
2022-08-25T16:03:50.556Z,4.90
2022-08-25T16:06:35.755Z,5.32
2022-08-25T16:09:23.027Z,5.10
2022-08-25T16:12:08.979Z,5.10
2022-08-25T16:14:54.840Z,5.10
2022-08-25T16:17:40.746Z,5.35
2022-08-25T16:20:31.590Z,5.50
2022-08-25T16:23:19.388Z,5.90
2022-08-25T16:26:06.386Z,5.82
2022-08-25T16:28:51.563Z,6.50
2022-08-25T16:31:36.678Z,5.90
2022-08-25T16:34:24.310Z,5.90
2022-08-25T16:37:09.979Z,8.25
2022-08-25T16:39:56.286Z,5.90
2022-08-25T16:42:41.764Z,5.70
2022-08-25T16:45:28.024Z,5.25
2022-08-25T16:48:13.028Z,5.35
2022-08-25T16:50:57.943Z,5.10
2022-08-25T16:53:43.239Z,6.03
2022-08-25T16:56:30.452Z,6.60
2022-08-25T16:59:15.627Z,6.03
2022-08-25T17:02:00.492Z,5.53
2022-08-25T17:04:45.790Z,5.68
2022-08-25T17:07:30.551Z,5.80
2022-08-25T17:10:16.976Z,5.47
2022-08-25T17:13:02.735Z,5.47
2022-08-25T17:15:48.793Z,6.07
2022-08-25T17:18:38.269Z,5.38
2022-08-25T17:21:25.107Z,5.60
2022-08-25T17:24:10.633Z,5.80
2022-08-25T17:26:55.713Z,5.82
2022-08-25T17:29:41.090Z,6.68
2022-08-25T17:32:30.276Z,5.60
2022-08-25T17:35:15.905Z,5.53
2022-08-25T17:38:01.357Z,5.90
2022-08-25T17:40:47.078Z,6.20
2022-08-25T17:43:33.384Z,6.22
2022-08-25T17:46:18.544Z,5.90
2022-08-25T17:49:05.129Z,6.40
2022-08-25T17:51:50.704Z,6.00
2022-08-25T17:54:35.937Z,6.32
2022-08-25T17:57:21.533Z,6.05
2022-08-25T18:00:08.076Z,5.93
2022-08-25T18:02:53.222Z,6.05
2022-08-25T18:05:39.432Z,6.22
2022-08-25T18:08:29.915Z,6.93
2022-08-25T18:11:21.423Z,7.03
2022-08-25T18:14:06.869Z,6.20
2022-08-25T18:16:55.896Z,6.18
2022-08-25T18:19:40.843Z,6.80
2022-08-25T18:22:25.782Z,7.70
2022-08-25T18:25:13.970Z,7.50
2022-08-25T18:27:59.169Z,7.10
2022-08-25T18:30:46.151Z,6.40
2022-08-25T18:33:31.570Z,7.28
2022-08-25T18:36:16.968Z,6.60
2022-08-25T18:39:02.660Z,6.65
2022-08-25T18:41:48.013Z,8.70
2022-08-25T18:44:33.390Z,9.05
2022-08-25T18:47:18.868Z,7.07
2022-08-25T18:50:07.568Z,7.80
2022-08-25T18:52:54.664Z,6.70
2022-08-25T18:55:41.366Z,6.57
2022-08-25T18:58:27.080Z,6.90
2022-08-25T19:01:14.108Z,7.20
2022-08-25T19:03:59.835Z,7.00
2022-08-25T19:06:45.290Z,7.95
2022-08-25T19:09:31.104Z,8.23
2022-08-25T19:12:22.548Z,8.07
2022-08-25T19:15:09.107Z,8.77
2022-08-25T19:17:55.373Z,8.70
2022-08-25T19:20:42.152Z,7.38
2022-08-25T19:23:27.680Z,7.40
2022-08-25T19:26:13.919Z,7.00
2022-08-25T19:29:06.847Z,7.25
2022-08-25T19:31:54.462Z,7.40
2022-08-25T19:34:42.141Z,7.97
2022-08-25T19:37:29.341Z,8.20
2022-08-25T19:40:14.795Z,7.78
2022-08-25T19:43:05.111Z,7.47
2022-08-25T19:45:51.771Z,8.15
2022-08-25T19:48:37.061Z,8.40
2022-08-25T19:51:22.512Z,7.90
2022-08-25T19:54:10.148Z,7.70
2022-08-25T19:56:55.885Z,7.60
2022-08-25T19:59:43.565Z,7.78
2022-08-25T20:02:29.672Z,8.02
2022-08-25T20:05:15.319Z,8.18
2022-08-25T20:08:00.724Z,7.60
2022-08-25T20:10:46.184Z,7.57
2022-08-25T20:13:32.557Z,8.23
2022-08-25T20:16:17.967Z,7.85
2022-08-25T20:19:06.017Z,8.00
2022-08-25T20:21:54.258Z,8.18
2022-08-25T20:24:39.718Z,7.80
2022-08-25T20:27:31.554Z,8.68
2022-08-25T20:30:26.133Z,8.63
2022-08-25T20:33:11.309Z,8.70
2022-08-25T20:35:57.053Z,9.15
2022-08-25T20:38:43.510Z,8.60
2022-08-25T20:41:28.736Z,8.55
2022-08-25T20:44:14.994Z,8.50
2022-08-25T20:47:05.653Z,8.90
2022-08-25T20:49:50.885Z,8.93
2022-08-25T20:52:36.738Z,9.02
2022-08-25T20:55:24.353Z,9.02
2022-08-25T20:58:09.406Z,9.13
2022-08-25T21:00:54.532Z,9.85
2022-08-25T21:03:39.908Z,8.82
2022-08-25T21:06:25.225Z,8.90
2022-08-25T21:09:16.167Z,8.85
2022-08-25T21:12:02.690Z,9.77
2022-08-25T21:14:48.047Z,8.82
2022-08-25T21:17:33.381Z,8.85
2022-08-25T21:20:18.460Z,9.18
2022-08-25T21:23:03.579Z,9.18
2022-08-25T21:25:51.358Z,8.88
2022-08-25T21:28:36.291Z,8.77
2022-08-25T21:31:21.243Z,9.48
2022-08-25T21:34:06.630Z,9.20
2022-08-25T21:36:53.633Z,9.20
2022-08-25T21:39:39.014Z,9.80
2022-08-25T21:42:26.316Z,9.23
2022-08-25T21:45:12.205Z,9.25
2022-08-25T21:47:58.064Z,9.55
2022-08-25T21:50:43.526Z,9.35
2022-08-25T21:53:28.818Z,9.75
2022-08-25T21:56:18.812Z,9.00
2022-08-25T21:59:07.413Z,9.10
2022-08-25T22:01:57.828Z,9.88
2022-08-25T22:04:43.757Z,10.02
2022-08-25T22:07:28.556Z,9.50
2022-08-25T22:10:20.273Z,9.95
2022-08-25T22:13:05.503Z,9.68
2022-08-25T22:15:52.073Z,10.07
2022-08-25T22:18:38.075Z,10.10
2022-08-25T22:21:23.413Z,10.20
2022-08-25T22:24:10.025Z,9.93
2022-08-25T22:26:56.053Z,9.50
2022-08-25T22:29:41.113Z,9.65
2022-08-25T22:32:26.425Z,9.70
2022-08-25T22:35:11.748Z,10.23
2022-08-25T22:37:58.343Z,10.30
2022-08-25T22:40:43.682Z,10.88
2022-08-25T22:43:29.145Z,10.85
2022-08-25T22:46:14.799Z,11.55
2022-08-25T22:49:02.464Z,10.43
2022-08-25T22:51:47.438Z,10.10
2022-08-25T22:54:32.542Z,10.35
2022-08-25T22:57:18.061Z,10.52
2022-08-25T23:00:08.298Z,10.75
2022-08-25T23:02:53.573Z,10.90
2022-08-25T23:05:39.844Z,11.02
2022-08-25T23:08:38.201Z,11.18
2022-08-25T23:11:26.202Z,10.90
2022-08-25T23:14:14.173Z,10.80
2022-08-25T23:16:58.964Z,9.43
2022-08-25T23:19:43.829Z,10.55
2022-08-25T23:22:29.110Z,10.20
2022-08-25T23:25:14.557Z,9.50
2022-08-25T23:28:00.119Z,9.98
2022-08-25T23:30:51.790Z,10.63
2022-08-25T23:33:45.221Z,11.40
2022-08-25T23:36:30.218Z,10.82
2022-08-25T23:39:15.579Z,10.48
2022-08-25T23:42:00.847Z,10.32
2022-08-25T23:44:46.992Z,10.52
2022-08-25T23:47:32.136Z,11.05
2022-08-25T23:50:17.626Z,11.00
2022-08-25T23:53:03.412Z,11.00
2022-08-25T23:55:53.053Z,11.15
2022-08-25T23:58:39.398Z,10.65
